Time;durP1;ratioP1;P1;durP2;ratioP2;P2;SDS_P1;SDS_P2;PMS_P1;PMS_P2;Temp;Humidity;BMP_temperature;BMP_pressure;BME280_temperature;BME280_humidity;BME280_pressure;Samples;Min_cycle;Max_cycle;Signal;HPM_P1;HPM_P2
2021/04/16 00:02:15;;;;;;;8.90;5.60;;;2.80;81.50;;;;;;4980649;28;20037;-76
2021/04/16 00:04:40;;;;;;;9.88;6.95;;;2.60;81.80;;;;;;4984977;28;20037;-76
2021/04/16 00:07:06;;;;;;;9.85;5.50;;;2.60;81.80;;;;;;4984855;28;20043;-76
2021/04/16 00:09:31;;;;;;;11.82;6.25;;;2.60;80.80;;;;;;5007915;28;20033;-76
2021/04/16 00:11:57;;;;;;;11.38;6.70;;;2.60;81.60;;;;;;4983803;28;20163;-77
2021/04/16 00:14:22;;;;;;;8.68;5.75;;;2.40;82.40;;;;;;5009209;28;20030;-77
2021/04/16 00:16:48;;;;;;;8.57;6.40;;;2.40;82.80;;;;;;5010430;28;20037;-76
2021/04/16 00:19:13;;;;;;;11.00;7.20;;;2.50;82.00;;;;;;5010271;28;20030;-76
2021/04/16 00:21:39;;;;;;;11.98;6.55;;;2.40;82.50;;;;;;4980050;28;20095;-76
2021/04/16 00:24:05;;;;;;;14.52;8.77;;;2.30;82.90;;;;;;4982561;28;20038;-76
2021/04/16 00:26:31;;;;;;;13.52;6.80;;;2.20;82.90;;;;;;4998927;28;20034;-76
2021/04/16 00:28:56;;;;;;;8.38;5.13;;;2.30;83.00;;;;;;4982183;28;20136;-76
2021/04/16 00:31:28;;;;;;;10.32;5.85;;;2.30;81.60;;;;;;5012632;28;20053;-76
2021/04/16 00:33:54;;;;;;;9.82;5.43;;;2.40;80.90;;;;;;4991902;28;20095;-76
2021/04/16 00:36:20;;;;;;;7.65;5.30;;;2.40;80.50;;;;;;5009029;28;20030;-76
2021/04/16 00:38:46;;;;;;;9.23;5.75;;;2.50;80.40;;;;;;4985262;28;20433;-76
2021/04/16 00:41:13;;;;;;;10.18;6.60;;;2.50;80.00;;;;;;4986442;28;20026;-76
2021/04/16 00:43:39;;;;;;;11.45;7.22;;;2.40;81.80;;;;;;4992816;28;20396;-76
2021/04/16 00:46:11;;;;;;;12.70;7.82;;;2.40;82.00;;;;;;4982248;28;20037;-76
2021/04/16 00:48:37;;;;;;;10.48;6.47;;;2.20;83.40;;;;;;4999874;28;20027;-76
2021/04/16 00:51:04;;;;;;;6.20;4.72;;;2.10;83.80;;;;;;4995281;28;20034;-77
2021/04/16 00:53:30;;;;;;;11.75;6.15;;;2.20;84.20;;;;;;5001539;28;20026;-76
2021/04/16 00:55:56;;;;;;;7.88;5.43;;;2.30;83.50;;;;;;4969362;28;20045;-76
2021/04/16 00:58:23;;;;;;;6.82;4.68;;;2.40;82.40;;;;;;4984457;28;20038;-76
2021/04/16 01:00:49;;;;;;;10.23;5.82;;;2.50;81.70;;;;;;4981085;28;20034;-76
2021/04/16 01:03:14;;;;;;;7.63;4.93;;;2.50;81.00;;;;;;4972360;28;20172;-76
2021/04/16 01:05:40;;;;;;;7.05;4.30;;;2.50;82.30;;;;;;4988355;28;20513;-76
2021/04/16 01:08:06;;;;;;;8.35;5.55;;;2.50;81.70;;;;;;4993883;28;20030;-76
2021/04/16 01:10:31;;;;;;;8.10;4.80;;;2.50;81.30;;;;;;4993854;28;20030;-76
2021/04/16 01:12:57;;;;;;;14.43;7.50;;;2.60;82.00;;;;;;4992054;28;20465;-76
2021/04/16 01:15:29;;;;;;;12.25;6.93;;;2.50;82.90;;;;;;5009871;28;20473;-76
2021/04/16 01:17:55;;;;;;;9.15;5.13;;;2.40;83.40;;;;;;4981960;28;20066;-76
2021/04/16 01:20:24;;;;;;;13.00;7.40;;;2.40;82.80;;;;;;4994817;28;20563;-76
2021/04/16 01:23:03;;;;;;;10.88;4.93;;;2.50;83.30;;;;;;4986303;28;20120;-76
2021/04/16 01:25:29;;;;;;;10.40;7.05;;;2.50;83.00;;;;;;4992552;28;20456;-76
2021/04/16 01:27:54;;;;;;;8.13;6.03;;;2.50;83.10;;;;;;4985976;28;20568;-76
2021/04/16 01:30:23;;;;;;;10.85;5.28;;;2.50;81.90;;;;;;4996228;28;20568;-76
2021/04/16 01:32:49;;;;;;;11.85;5.40;;;2.60;81.70;;;;;;4972559;28;20522;-76
2021/04/16 01:35:17;;;;;;;9.60;5.30;;;2.50;81.90;;;;;;4984017;28;20044;-76
2021/04/16 01:37:43;;;;;;;10.77;6.05;;;2.60;81.10;;;;;;4982622;28;20394;-76
2021/04/16 01:40:09;;;;;;;10.60;6.10;;;2.60;81.10;;;;;;4982233;28;20052;-76
2021/04/16 01:42:34;;;;;;;10.52;5.38;;;2.70;81.30;;;;;;5003572;28;20033;-76
2021/04/16 01:45:00;;;;;;;9.00;5.00;;;2.70;81.20;;;;;;4982462;28;20109;-76
2021/04/16 01:47:26;;;;;;;9.68;5.88;;;2.70;81.90;;;;;;4969932;28;20033;-76
2021/04/16 01:49:51;;;;;;;8.63;5.80;;;2.70;81.50;;;;;;4994132;28;20111;-76
2021/04/16 01:52:21;;;;;;;9.77;6.25;;;2.70;82.20;;;;;;5011983;28;20041;-76
2021/04/16 01:54:50;;;;;;;9.43;5.90;;;2.60;81.40;;;;;;4998864;28;20038;-76
2021/04/16 01:57:23;;;;;;;14.63;7.43;;;2.60;81.30;;;;;;4986959;28;20033;-76
2021/04/16 01:59:50;;;;;;;14.02;6.55;;;2.60;81.30;;;;;;4995054;28;20122;-76
2021/04/16 02:02:20;;;;;;;13.98;6.70;;;2.50;82.60;;;;;;4986476;28;20030;-76
2021/04/16 02:04:46;;;;;;;11.63;6.43;;;2.60;82.40;;;;;;4985011;28;20033;-76
2021/04/16 02:07:11;;;;;;;7.88;5.65;;;2.60;82.70;;;;;;4987803;28;20037;-76
2021/04/16 02:09:37;;;;;;;10.45;5.55;;;2.60;82.40;;;;;;4994570;28;20026;-76
2021/04/16 02:12:04;;;;;;;9.90;4.85;;;2.70;81.60;;;;;;4978578;28;20116;-76
2021/04/16 02:14:30;;;;;;;18.05;8.43;;;2.60;82.10;;;;;;4980824;28;20486;-76
2021/04/16 02:17:07;;;;;;;10.32;6.30;;;2.60;82.60;;;;;;4996362;28;20045;-76
2021/04/16 02:19:32;;;;;;;11.40;7.47;;;2.50;82.90;;;;;;4983394;28;20032;-76
2021/04/16 02:21:58;;;;;;;7.95;4.90;;;2.50;82.70;;;;;;4981990;28;20034;-76
2021/04/16 02:24:23;;;;;;;15.60;7.80;;;2.60;82.50;;;;;;4995120;28;20474;-76
2021/04/16 02:26:49;;;;;;;9.65;5.43;;;2.50;83.10;;;;;;4972691;28;20445;-76
2021/04/16 02:29:16;;;;;;;10.32;6.57;;;2.50;83.00;;;;;;4999950;28;20084;-76
2021/04/16 02:31:42;;;;;;;10.55;7.32;;;2.50;83.10;;;;;;4991039;28;20034;-76
2021/04/16 02:34:09;;;;;;;12.98;7.40;;;2.50;82.60;;;;;;4981287;28;20348;-76
2021/04/16 02:36:35;;;;;;;9.95;5.20;;;2.50;82.70;;;;;;5000012;28;20574;-76
2021/04/16 02:39:00;;;;;;;8.70;6.57;;;2.50;82.90;;;;;;4993610;28;20014;-76
2021/04/16 02:41:26;;;;;;;9.63;5.80;;;2.50;82.60;;;;;;4991118;28;20036;-76
2021/04/16 02:43:51;;;;;;;7.50;5.43;;;2.50;83.20;;;;;;4986802;28;20041;-75
2021/04/16 02:46:17;;;;;;;10.77;6.43;;;2.50;82.70;;;;;;4974131;28;20109;-74
2021/04/16 02:48:43;;;;;;;10.18;6.40;;;2.50;82.50;;;;;;4999044;28;20030;-75
2021/04/16 02:51:08;;;;;;;14.18;7.13;;;2.40;83.10;;;;;;4994462;28;20034;-75
2021/04/16 02:53:34;;;;;;;12.63;7.68;;;2.40;83.60;;;;;;5004533;28;20036;-75
2021/04/16 02:55:59;;;;;;;11.25;7.43;;;2.30;83.70;;;;;;4981032;28;20183;-75
2021/04/16 02:58:25;;;;;;;11.77;8.00;;;2.40;83.00;;;;;;4982647;28;20053;-74
2021/04/16 03:00:50;;;;;;;11.13;7.93;;;2.30;83.50;;;;;;4979214;28;20068;-75
2021/04/16 03:03:16;;;;;;;9.27;5.85;;;2.30;83.90;;;;;;4963617;28;20030;-75
2021/04/16 03:05:41;;;;;;;14.15;8.20;;;2.30;83.60;;;;;;5002719;28;20034;-75
2021/04/16 03:08:07;;;;;;;13.75;7.32;;;2.30;83.60;;;;;;4982126;28;20030;-75
2021/04/16 03:10:34;;;;;;;15.73;8.30;;;2.40;82.80;;;;;;5006183;28;20033;-74
2021/04/16 03:12:59;;;;;;;14.18;8.73;;;2.40;82.80;;;;;;4995792;28;20046;-75
2021/04/16 03:15:25;;;;;;;17.25;10.30;;;2.30;83.50;;;;;;5010402;28;20040;-74
2021/04/16 03:17:50;;;;;;;16.75;9.15;;;2.30;83.90;;;;;;4982775;28;20494;-75
2021/04/16 03:20:17;;;;;;;13.52;9.07;;;2.20;84.10;;;;;;5001610;28;20485;-75
2021/04/16 03:22:42;;;;;;;15.23;8.82;;;2.20;84.90;;;;;;4980262;28;20028;-75
2021/04/16 03:25:09;;;;;;;12.70;8.20;;;2.20;84.60;;;;;;4967366;28;20038;-75
2021/04/16 03:27:35;;;;;;;11.68;7.57;;;2.30;84.10;;;;;;5002205;28;20026;-75
2021/04/16 03:30:00;;;;;;;13.43;7.53;;;2.30;83.80;;;;;;5001258;28;20042;-75
2021/04/16 03:32:28;;;;;;;13.63;8.30;;;2.30;83.20;;;;;;4998628;28;20174;-74
2021/04/16 03:34:55;;;;;;;16.45;7.90;;;2.30;83.20;;;;;;4998530;28;20040;-75
2021/04/16 03:37:20;;;;;;;12.73;8.13;;;2.30;83.30;;;;;;5011726;28;20045;-75
2021/04/16 03:39:46;;;;;;;16.65;8.55;;;2.40;83.20;;;;;;4982661;28;20037;-75
2021/04/16 03:42:12;;;;;;;16.65;7.97;;;2.40;82.30;;;;;;5004262;28;20038;-75
2021/04/16 03:44:37;;;;;;;13.23;8.43;;;2.40;83.60;;;;;;4997267;28;20509;-75
2021/04/16 03:47:03;;;;;;;14.63;8.60;;;2.30;83.70;;;;;;5014350;28;20037;-75
2021/04/16 03:49:28;;;;;;;15.50;9.13;;;2.40;83.70;;;;;;4986068;28;20082;-75
2021/04/16 03:51:58;;;;;;;12.95;8.25;;;2.30;83.10;;;;;;4990841;28;20037;-75
2021/04/16 03:54:24;;;;;;;15.55;9.10;;;2.40;83.80;;;;;;5011997;28;20128;-74
2021/04/16 03:56:49;;;;;;;12.13;8.02;;;2.40;83.10;;;;;;4984209;28;20113;-74
2021/04/16 03:59:15;;;;;;;13.38;9.88;;;2.30;83.40;;;;;;4984194;28;20469;-74
2021/04/16 04:01:41;;;;;;;13.55;8.35;;;2.30;83.40;;;;;;4984273;28;20553;-74
2021/04/16 04:04:06;;;;;;;14.15;9.07;;;2.30;83.20;;;;;;4983231;28;20122;-74
2021/04/16 04:06:32;;;;;;;11.23;7.80;;;2.40;83.30;;;;;;5006394;28;20049;-74
2021/04/16 04:08:58;;;;;;;14.25;8.10;;;2.40;84.50;;;;;;4988480;28;20045;-75
2021/04/16 04:11:23;;;;;;;11.50;8.23;;;2.30;86.00;;;;;;4999684;28;20026;-74
2021/04/16 04:13:49;;;;;;;12.65;8.45;;;2.30;84.80;;;;;;4993753;28;20338;-75
2021/04/16 04:16:14;;;;;;;19.92;8.80;;;2.30;85.10;;;;;;4986583;28;20024;-74
2021/04/16 04:18:40;;;;;;;17.00;8.98;;;2.30;85.20;;;;;;4980069;28;20034;-75
2021/04/16 04:21:05;;;;;;;13.98;7.93;;;2.30;85.70;;;;;;4984431;28;20081;-75
2021/04/16 04:23:31;;;;;;;16.23;9.23;;;2.20;86.40;;;;;;4976004;28;20445;-74
2021/04/16 04:25:56;;;;;;;17.45;8.52;;;2.20;87.40;;;;;;5010142;28;20676;-74
2021/04/16 04:28:22;;;;;;;12.48;8.13;;;2.10;88.40;;;;;;4997669;28;20034;-74
2021/04/16 04:30:47;;;;;;;11.55;7.93;;;2.00;89.30;;;;;;5014364;28;20034;-75
2021/04/16 04:33:13;;;;;;;14.77;8.95;;;2.10;88.80;;;;;;4986490;28;20034;-75
2021/04/16 04:35:38;;;;;;;12.68;8.45;;;2.10;87.60;;;;;;5016505;28;20382;-74
2021/04/16 04:38:04;;;;;;;11.57;7.75;;;2.20;86.50;;;;;;4988714;28;20076;-75
2021/04/16 04:40:30;;;;;;;22.60;9.80;;;2.10;86.50;;;;;;5010975;28;20037;-75
2021/04/16 04:42:55;;;;;;;17.00;9.25;;;2.10;87.10;;;;;;4979933;28;20034;-76
2021/04/16 04:45:21;;;;;;;16.60;9.27;;;2.10;86.60;;;;;;4999312;28;20030;-75
2021/04/16 04:47:47;;;;;;;18.88;8.70;;;2.00;87.10;;;;;;4982224;28;20085;-75
2021/04/16 04:50:13;;;;;;;18.15;8.50;;;2.00;87.30;;;;;;4966456;28;20417;-75
2021/04/16 04:52:39;;;;;;;13.43;8.18;;;2.00;88.50;;;;;;4986551;28;20112;-75
2021/04/16 04:55:08;;;;;;;11.20;8.20;;;2.00;87.20;;;;;;4984799;28;20114;-75
2021/04/16 04:57:33;;;;;;;12.02;8.48;;;1.90;88.20;;;;;;5012054;28;20343;-74
2021/04/16 04:59:59;;;;;;;16.17;7.78;;;2.00;88.40;;;;;;5011720;28;20116;-75
2021/04/16 05:02:25;;;;;;;13.02;7.97;;;2.00;89.30;;;;;;4993901;28;20374;-76
2021/04/16 05:04:50;;;;;;;16.17;9.43;;;2.00;88.00;;;;;;4992221;28;20044;-75
2021/04/16 05:07:16;;;;;;;13.80;9.93;;;2.10;87.90;;;;;;4987035;28;20144;-76
2021/04/16 05:09:42;;;;;;;17.27;9.55;;;2.10;87.20;;;;;;4998138;28;20131;-75
2021/04/16 05:12:08;;;;;;;15.48;9.95;;;2.20;88.00;;;;;;4967318;28;20027;-75
2021/04/16 05:14:33;;;;;;;13.88;9.10;;;2.20;88.40;;;;;;5004016;28;20094;-76
2021/04/16 05:16:59;;;;;;;20.67;10.38;;;2.20;88.30;;;;;;5004973;28;20035;-76
2021/04/16 05:19:25;;;;;;;14.18;9.55;;;2.20;89.20;;;;;;5002886;28;20037;-76
2021/04/16 05:21:52;;;;;;;19.58;11.13;;;2.20;89.70;;;;;;4982681;28;20042;-76
2021/04/16 05:24:18;;;;;;;15.63;9.32;;;2.20;89.50;;;;;;4978968;28;20326;-75
2021/04/16 05:26:43;;;;;;;13.13;8.48;;;2.30;90.10;;;;;;4981886;28;20027;-75
2021/04/16 05:29:09;;;;;;;13.95;7.75;;;2.40;89.90;;;;;;5002434;28;20510;-76
2021/04/16 05:31:35;;;;;;;14.63;8.43;;;2.50;87.00;;;;;;5003136;28;20500;-76
2021/04/16 05:34:00;;;;;;;11.60;7.78;;;2.60;86.90;;;;;;4981378;28;20410;-75
2021/04/16 05:36:26;;;;;;;10.77;8.02;;;2.60;84.70;;;;;;4983364;28;20032;-75
2021/04/16 05:38:52;;;;;;;12.60;8.30;;;2.70;85.90;;;;;;5006774;28;20056;-75
2021/04/16 05:41:18;;;;;;;13.45;8.35;;;2.70;86.00;;;;;;5007612;28;20046;-75
2021/04/16 05:43:43;;;;;;;16.40;8.30;;;2.70;88.30;;;;;;4978082;28;20038;-75
2021/04/16 05:46:09;;;;;;;12.80;7.85;;;2.70;89.40;;;;;;4986497;28;20034;-75
2021/04/16 05:48:34;;;;;;;13.98;8.35;;;2.70;90.20;;;;;;4990424;28;22719;-75
2021/04/16 05:51:00;;;;;;;13.57;8.88;;;2.70;90.30;;;;;;4993653;28;20568;-75
2021/04/16 05:53:25;;;;;;;14.32;8.35;;;2.70;89.40;;;;;;4990443;28;20786;-75
2021/04/16 05:55:51;;;;;;;14.00;8.65;;;2.70;90.60;;;;;;4994146;28;20502;-75
2021/04/16 05:58:16;;;;;;;15.73;9.50;;;2.80;90.20;;;;;;4985797;28;20029;-75
2021/04/16 06:00:42;;;;;;;18.35;8.02;;;2.90;90.60;;;;;;4984036;28;20051;-76
2021/04/16 06:03:09;;;;;;;17.48;8.65;;;3.00;91.20;;;;;;4960500;28;20036;-75
2021/04/16 06:05:34;;;;;;;14.68;8.85;;;3.00;90.10;;;;;;4978807;28;20054;-74
2021/04/16 06:08:00;;;;;;;15.85;8.57;;;3.20;91.00;;;;;;5006540;28;20425;-75
2021/04/16 06:10:25;;;;;;;11.07;7.20;;;3.40;91.40;;;;;;5013659;28;20056;-75
2021/04/16 06:12:51;;;;;;;20.05;8.57;;;3.50;90.50;;;;;;5009812;28;20091;-75
2021/04/16 06:15:19;;;;;;;11.70;7.45;;;3.70;90.40;;;;;;4964151;28;20140;-75
2021/04/16 06:17:45;;;;;;;14.73;8.75;;;3.90;90.90;;;;;;4994256;28;20041;-75
2021/04/16 06:20:11;;;;;;;15.85;8.70;;;4.00;90.90;;;;;;4978065;28;20393;-75
2021/04/16 06:22:37;;;;;;;18.13;8.88;;;4.10;90.30;;;;;;4989391;28;20109;-75
2021/04/16 06:25:07;;;;;;;19.63;9.52;;;4.20;90.50;;;;;;4993574;28;20129;-75
2021/04/16 06:27:32;;;;;;;12.88;8.13;;;4.30;90.70;;;;;;4998010;28;20044;-75
2021/04/16 06:29:58;;;;;;;16.05;8.68;;;4.50;90.90;;;;;;5005212;28;20412;-75
2021/04/16 06:32:24;;;;;;;13.02;8.45;;;4.60;90.70;;;;;;5000337;28;20107;-75
2021/04/16 06:34:49;;;;;;;10.80;7.35;;;4.70;90.20;;;;;;4980235;28;20796;-75
2021/04/16 06:37:15;;;;;;;11.23;6.95;;;4.90;88.70;;;;;;4986806;28;20022;-75
2021/04/16 06:39:41;;;;;;;16.42;8.60;;;5.10;86.80;;;;;;4981331;28;20103;-75
2021/04/16 06:42:27;;;;;;;12.68;8.35;;;5.20;88.70;;;;;;4982548;28;20038;-75
2021/04/16 06:44:55;;;;;;;12.00;8.05;;;5.20;90.30;;;;;;5006726;28;20724;-75
2021/04/16 06:47:27;;;;;;;14.55;7.90;;;5.30;90.20;;;;;;5011105;28;20507;-75
2021/04/16 06:49:58;;;;;;;10.52;7.00;;;5.40;90.30;;;;;;4991719;28;20035;-75
2021/04/16 06:52:40;;;;;;;16.15;8.45;;;5.60;87.30;;;;;;4988948;28;20030;-75
2021/04/16 06:55:12;;;;;;;12.07;8.20;;;5.80;87.80;;;;;;4990824;28;20616;-75
2021/04/16 06:57:37;;;;;;;13.30;8.35;;;5.80;88.00;;;;;;4989975;28;20059;-75
2021/04/16 07:00:42;;;;;;;14.02;8.45;;;6.00;88.00;;;;;;5009883;28;20049;-75
2021/04/16 07:03:12;;;;;;;10.75;7.45;;;6.10;88.80;;;;;;5009471;28;20038;-75
2021/04/16 07:06:11;;;;;;;11.35;7.90;;;6.20;88.00;;;;;;4995480;28;20045;-75
2021/04/16 07:08:40;;;;;;;14.20;8.23;;;6.30;87.80;;;;;;4973222;28;20029;-74
2021/04/16 07:11:24;;;;;;;9.55;6.97;;;6.40;87.30;;;;;;4987276;28;20936;-74
2021/04/16 07:13:49;;;;;;;12.18;6.97;;;6.50;88.00;;;;;;4965170;28;20405;-75
2021/04/16 07:16:15;;;;;;;13.65;6.70;;;6.50;88.00;;;;;;5006124;28;20030;-74
2021/04/16 07:18:42;;;;;;;10.45;6.63;;;6.70;87.40;;;;;;4990760;28;20049;-75
2021/04/16 07:21:09;;;;;;;13.68;7.45;;;6.80;86.90;;;;;;4970130;28;20065;-74
2021/04/16 07:23:46;;;;;;;11.57;6.93;;;6.80;87.10;;;;;;4975555;28;20044;-74
2021/04/16 07:26:34;;;;;;;10.48;6.35;;;7.00;87.60;;;;;;4995405;28;20446;-74
2021/04/16 07:28:59;;;;;;;12.00;6.35;;;7.20;86.50;;;;;;5002291;28;20045;-74
2021/04/16 07:31:41;;;;;;;8.23;6.38;;;7.20;86.40;;;;;;4984885;28;20041;-74
2021/04/16 07:34:07;;;;;;;10.15;5.80;;;7.40;85.20;;;;;;4998476;28;20042;-75
2021/04/16 07:36:38;;;;;;;12.45;5.75;;;7.50;85.90;;;;;;4973525;28;20161;-75
2021/04/16 07:39:12;;;;;;;11.63;5.68;;;7.60;84.90;;;;;;4975958;28;20038;-74
2021/04/16 07:41:44;;;;;;;6.70;4.63;;;7.70;84.20;;;;;;5008644;28;20453;-76
2021/04/16 07:44:34;;;;;;;7.35;4.65;;;7.70;83.90;;;;;;5004096;28;20109;-75
2021/04/16 07:47:01;;;;;;;13.88;6.18;;;7.80;84.70;;;;;;4983259;28;20034;-74
2021/04/16 07:49:34;;;;;;;7.75;5.93;;;7.90;84.00;;;;;;4980210;28;20030;-75
2021/04/16 07:52:28;;;;;;;6.95;4.97;;;8.00;83.30;;;;;;4984104;28;20041;-75
2021/04/16 07:55:15;;;;;;;9.00;5.57;;;8.10;83.40;;;;;;5004725;28;20038;-74
2021/04/16 07:57:50;;;;;;;8.45;5.43;;;8.20;82.60;;;;;;4987638;28;20038;-75
2021/04/16 08:00:22;;;;;;;13.25;6.07;;;8.50;82.80;;;;;;4998202;28;20030;-75
2021/04/16 08:03:08;;;;;;;9.98;4.78;;;8.50;80.90;;;;;;4995796;28;20030;-74
2021/04/16 08:05:42;;;;;;;7.38;5.22;;;8.70;80.00;;;;;;5001058;28;20056;-74
2021/04/16 08:08:46;;;;;;;7.95;4.47;;;8.80;79.30;;;;;;4986219;28;20551;-75
2021/04/16 08:11:14;;;;;;;10.93;5.70;;;8.90;78.50;;;;;;5003783;28;20034;-74
2021/04/16 08:13:43;;;;;;;8.30;4.50;;;9.00;79.30;;;;;;4989267;28;20030;-75
2021/04/16 08:16:29;;;;;;;7.93;5.10;;;9.10;77.20;;;;;;5000476;28;20073;-74
2021/04/16 08:19:09;;;;;;;;;;;9.20;77.70;;;;;;4985381;28;20042;-74
2021/04/16 08:21:38;;;;;;;8.50;4.47;;;9.30;76.40;;;;;;5007838;28;20188;-74
2021/04/16 08:24:08;;;;;;;8.68;4.15;;;9.40;75.40;;;;;;4981617;28;20050;-74
2021/04/16 08:26:37;;;;;;;5.65;4.30;;;9.60;77.50;;;;;;4996808;28;20049;-75
2021/04/16 08:29:26;;;;;;;9.45;5.35;;;9.60;75.70;;;;;;5003968;28;20458;-74
2021/04/16 08:32:21;;;;;;;11.68;4.45;;;9.60;75.20;;;;;;4987166;28;20034;-74
2021/04/16 08:34:48;;;;;;;7.10;4.22;;;9.70;75.70;;;;;;4991894;28;20033;-74
2021/04/16 08:37:24;;;;;;;6.28;4.32;;;9.80;73.90;;;;;;4967047;28;20437;-75
2021/04/16 08:39:50;;;;;;;5.78;3.78;;;9.80;74.20;;;;;;4979201;28;20045;-76
2021/04/16 08:42:27;;;;;;;8.20;3.85;;;9.90;74.00;;;;;;4989003;28;20030;-75
2021/04/16 08:44:55;;;;;;;10.25;4.05;;;10.00;72.70;;;;;;4990184;28;20034;-75
2021/04/16 08:47:31;;;;;;;5.95;3.80;;;10.10;72.90;;;;;;4984743;28;20371;-75
2021/04/16 08:49:57;;;;;;;4.72;3.20;;;10.30;69.20;;;;;;4997779;28;20045;-74
2021/04/16 08:52:29;;;;;;;8.00;3.33;;;10.40;71.40;;;;;;5010313;28;20030;-74
2021/04/16 08:54:55;;;;;;;6.03;3.28;;;10.50;72.30;;;;;;4993054;28;20132;-75
2021/04/16 08:57:25;;;;;;;7.25;3.30;;;10.80;71.80;;;;;;4978627;28;20128;-75
2021/04/16 08:59:59;;;;;;;4.25;3.35;;;11.00;72.00;;;;;;4997522;28;20061;-75
2021/04/16 09:02:32;;;;;;;6.55;3.25;;;11.40;67.10;;;;;;4996119;28;20116;-75
2021/04/16 09:05:13;;;;;;;8.60;3.65;;;11.60;66.20;;;;;;4978457;28;20533;-75
2021/04/16 09:07:42;;;;;;;4.05;2.83;;;11.70;66.80;;;;;;5006096;28;20401;-75
2021/04/16 09:10:16;;;;;;;5.53;3.03;;;11.90;64.70;;;;;;5003264;28;20095;-75
2021/04/16 09:12:44;;;;;;;3.35;2.42;;;12.10;62.60;;;;;;5001100;28;20119;-75
2021/04/16 09:15:19;;;;;;;7.47;2.55;;;12.20;63.70;;;;;;4978761;28;20034;-75
2021/04/16 09:17:50;;;;;;;3.90;2.70;;;12.50;68.00;;;;;;5009658;28;20372;-75
2021/04/16 09:20:16;;;;;;;6.75;2.78;;;12.80;66.40;;;;;;4999987;28;20553;-75
2021/04/16 09:22:43;;;;;;;3.40;2.40;;;13.10;61.00;;;;;;4999152;28;20029;-75
2021/04/16 09:25:38;;;;;;;4.72;2.65;;;13.10;59.00;;;;;;4980389;28;20044;-75
2021/04/16 09:28:22;;;;;;;4.65;2.40;;;13.10;57.40;;;;;;4992787;28;20430;-75
2021/04/16 09:30:53;;;;;;;3.47;2.45;;;13.20;59.60;;;;;;5020552;28;20501;-75
2021/04/16 09:33:24;;;;;;;4.97;2.53;;;13.30;58.70;;;;;;4986265;28;20522;-75
2021/04/16 09:35:55;;;;;;;4.22;2.38;;;13.20;56.50;;;;;;4995571;28;20030;-76
2021/04/16 09:38:24;;;;;;;4.80;2.13;;;13.20;59.70;;;;;;5009488;28;20378;-76
2021/04/16 09:41:11;;;;;;;3.47;2.40;;;13.30;60.40;;;;;;5006573;28;20107;-76
2021/04/16 09:43:37;;;;;;;;;;;13.50;62.30;;;;;;4982100;28;20025;-76
2021/04/16 09:46:22;;;;;;;5.53;2.28;;;14.00;57.50;;;;;;4987283;28;19917;-76
2021/04/16 09:48:49;;;;;;;6.10;2.67;;;14.00;55.80;;;;;;5004325;28;20478;-76
2021/04/16 09:51:19;;;;;;;2.40;1.83;;;14.00;52.60;;;;;;4979925;28;20042;-76
2021/04/16 09:54:07;;;;;;;3.80;1.85;;;14.00;52.30;;;;;;5001098;28;20061;-76
2021/04/16 09:56:33;;;;;;;3.40;1.55;;;13.90;55.80;;;;;;5000951;28;20112;-76
2021/04/16 09:59:01;;;;;;;4.13;1.88;;;14.10;55.20;;;;;;4979911;28;20116;-76
2021/04/16 10:01:27;;;;;;;10.98;1.83;;;14.20;55.60;;;;;;4980125;28;20068;-76
2021/04/16 10:03:54;;;;;;;4.45;2.08;;;14.30;56.80;;;;;;4990459;28;20121;-76
2021/04/16 10:06:31;;;;;;;6.97;1.77;;;14.90;57.90;;;;;;5005961;28;20081;-76
2021/04/16 10:09:20;;;;;;;2.00;1.67;;;14.90;54.10;;;;;;4979235;28;20037;-77
2021/04/16 10:11:56;;;;;;;2.38;1.60;;;14.90;52.90;;;;;;5010418;28;20053;-76
2021/04/16 10:14:25;;;;;;;3.83;1.70;;;14.90;52.20;;;;;;4995170;28;20041;-76
2021/04/16 10:16:55;;;;;;;4.53;1.63;;;15.00;48.20;;;;;;5005533;28;20109;-76
2021/04/16 10:19:24;;;;;;;4.55;1.95;;;14.90;51.20;;;;;;4999934;28;20029;-76
2021/04/16 10:21:50;;;;;;;7.88;1.52;;;15.00;49.90;;;;;;4985485;28;20054;-77
2021/04/16 10:51:02;;;;;;;4.30;1.70;;;14.60;48.60;;;;;;4988166;28;20044;-76
2021/04/16 12:38:26;;;;;;;2.83;1.90;;;17.50;44.80;;;;;;4986641;28;20060;-76
2021/04/16 12:40:52;;;;;;;5.13;1.92;;;17.20;42.50;;;;;;4989239;28;20054;-76
2021/04/16 12:43:17;;;;;;;3.25;2.35;;;17.20;43.80;;;;;;4987800;28;20030;-76
2021/04/16 12:45:43;;;;;;;3.42;2.03;;;17.20;40.10;;;;;;4994619;28;20382;-76
2021/04/16 12:48:09;;;;;;;6.63;1.95;;;17.40;44.00;;;;;;5011117;28;20041;-76
2021/04/16 12:50:34;;;;;;;2.33;1.92;;;17.50;43.60;;;;;;4998804;28;20747;-76
2021/04/16 12:53:00;;;;;;;3.22;2.10;;;17.50;39.40;;;;;;4982451;28;20093;-76
2021/04/16 12:55:26;;;;;;;3.20;2.42;;;17.40;39.60;;;;;;4969029;28;20464;-75
2021/04/16 12:57:55;;;;;;;3.20;2.20;;;17.60;41.30;;;;;;4994626;28;20065;-75
2021/04/16 13:00:29;;;;;;;2.53;2.08;;;18.00;41.50;;;;;;4998992;28;20050;-75
2021/04/16 13:02:59;;;;;;;5.95;2.25;;;17.80;40.80;;;;;;4994461;28;20426;-76
2021/04/16 13:05:25;;;;;;;2.58;1.77;;;17.90;42.40;;;;;;5009277;28;20041;-76
2021/04/16 13:07:50;;;;;;;5.45;3.03;;;18.00;42.20;;;;;;4993256;28;20040;-76
2021/04/16 13:10:16;;;;;;;2.40;1.60;;;18.20;42.30;;;;;;5004882;28;20041;-76
2021/04/16 13:12:42;;;;;;;2.58;1.88;;;18.10;40.30;;;;;;4970569;28;20061;-77
2021/04/16 13:15:08;;;;;;;2.92;1.98;;;18.10;41.00;;;;;;4978816;28;20113;-76
2021/04/16 13:17:34;;;;;;;2.28;2.08;;;18.20;41.20;;;;;;4995025;28;20572;-76
2021/04/16 13:19:59;;;;;;;2.70;2.10;;;18.30;40.20;;;;;;4968119;28;20035;-76
2021/04/16 13:22:27;;;;;;;2.67;2.22;;;18.30;41.50;;;;;;4997799;28;20041;-76
2021/04/16 13:24:54;;;;;;;2.70;2.47;;;18.50;42.10;;;;;;4993530;28;20060;-75
2021/04/16 13:27:23;;;;;;;2.67;2.33;;;18.80;43.90;;;;;;4998612;28;20252;-76
2021/04/16 13:29:48;;;;;;;3.80;2.03;;;18.90;39.90;;;;;;4989905;28;20038;-75
2021/04/16 13:32:18;;;;;;;3.65;3.10;;;18.90;40.20;;;;;;4983258;28;20053;-75
2021/04/16 13:34:44;;;;;;;4.03;2.30;;;18.70;38.70;;;;;;4976411;28;20507;-75
2021/04/16 13:37:12;;;;;;;4.32;2.20;;;18.70;39.30;;;;;;4981429;28;20026;-76
2021/04/16 13:39:39;;;;;;;2.03;1.65;;;18.40;38.70;;;;;;4984148;28;20127;-76
2021/04/16 13:42:05;;;;;;;3.50;2.22;;;18.20;40.60;;;;;;4984305;28;20054;-76
2021/04/16 13:44:30;;;;;;;2.83;2.10;;;18.40;42.70;;;;;;5013384;28;20030;-75
2021/04/16 13:46:56;;;;;;;3.15;1.85;;;18.40;38.30;;;;;;4997176;28;20081;-75
2021/04/16 13:49:23;;;;;;;2.75;1.80;;;18.30;36.20;;;;;;4995004;28;20045;-75
2021/04/16 13:51:48;;;;;;;3.72;2.20;;;18.30;36.60;;;;;;4966957;28;20543;-75
2021/04/16 13:54:14;;;;;;;3.50;2.28;;;18.20;36.30;;;;;;4985961;28;20034;-75
2021/04/16 13:56:39;;;;;;;6.10;2.15;;;18.10;35.60;;;;;;4978015;28;20046;-75
2021/04/16 13:59:05;;;;;;;3.58;2.38;;;18.10;39.40;;;;;;4978873;28;20038;-76
2021/04/16 14:01:30;;;;;;;2.13;1.75;;;18.20;38.40;;;;;;4982273;28;20037;-76
2021/04/16 14:04:00;;;;;;;2.30;1.75;;;18.50;39.60;;;;;;4990184;28;20030;-75
2021/04/16 14:06:28;;;;;;;4.20;2.30;;;18.50;40.80;;;;;;5010981;28;20037;-75
2021/04/16 14:09:01;;;;;;;7.28;2.47;;;18.60;39.40;;;;;;4987630;28;20042;-75
2021/04/16 14:11:28;;;;;;;2.85;1.70;;;18.70;39.70;;;;;;5001514;28;20087;-75
2021/04/16 14:13:53;;;;;;;4.25;1.88;;;18.70;37.60;;;;;;4992911;28;20030;-75
2021/04/16 14:16:33;;;;;;;5.82;2.45;;;18.70;39.10;;;;;;4969060;28;20023;-75
2021/04/16 14:19:05;;;;;;;4.15;2.15;;;18.70;35.60;;;;;;4988735;28;20081;-75
2021/04/16 14:21:31;;;;;;;3.53;2.35;;;18.60;35.60;;;;;;4991079;28;20041;-76
2021/04/16 14:23:57;;;;;;;4.80;2.03;;;18.50;34.70;;;;;;4976166;28;20076;-76
2021/04/16 14:26:22;;;;;;;2.60;2.40;;;18.50;35.00;;;;;;5005991;28;20537;-75
2021/04/16 14:28:48;;;;;;;2.58;1.70;;;18.50;36.50;;;;;;5008966;28;20034;-75
2021/04/16 14:31:14;;;;;;;3.83;2.35;;;18.50;36.50;;;;;;4983030;28;20340;-75
2021/04/16 14:33:41;;;;;;;2.30;2.10;;;18.30;35.90;;;;;;4977814;28;20128;-76
2021/04/16 14:36:07;;;;;;;3.15;2.15;;;18.30;35.10;;;;;;4992594;28;20455;-75
2021/04/16 14:38:32;;;;;;;3.05;2.22;;;18.10;34.90;;;;;;4972670;28;20126;-75
2021/04/16 14:40:58;;;;;;;5.85;2.30;;;17.90;36.10;;;;;;4990468;28;20099;-76
2021/04/16 14:43:24;;;;;;;3.20;2.15;;;18.00;36.10;;;;;;5005446;28;20415;-75
2021/04/16 14:45:51;;;;;;;3.30;2.22;;;17.90;34.30;;;;;;4997229;28;20498;-76
2021/04/16 14:48:16;;;;;;;4.68;2.17;;;18.00;34.70;;;;;;4986882;28;20042;-75
2021/04/16 14:50:42;;;;;;;4.78;2.50;;;17.90;35.00;;;;;;4997032;28;20504;-75
2021/04/16 14:53:32;;;;;;;4.55;2.08;;;18.00;35.10;;;;;;4999407;28;20505;-76
2021/04/16 14:56:01;;;;;;;2.88;2.40;;;18.20;37.30;;;;;;4991089;28;20099;-75
2021/04/16 14:58:33;;;;;;;3.47;1.83;;;18.20;38.50;;;;;;5010218;28;20104;-75
2021/04/16 15:00:58;;;;;;;3.72;2.40;;;18.30;39.80;;;;;;4991275;28;20564;-75
2021/04/16 15:03:24;;;;;;;4.15;2.22;;;18.30;39.10;;;;;;4981799;28;20038;-75
2021/04/16 15:05:49;;;;;;;2.90;2.25;;;18.10;36.10;;;;;;5006612;28;20457;-75
2021/04/16 15:08:20;;;;;;;2.35;1.75;;;18.00;37.70;;;;;;5004032;28;20030;-75